createdAt,value
2023-04-17T00:01:16.659Z,102810.03
2023-04-17T00:06:20.423Z,102802.97
2023-04-17T00:11:23.121Z,102787.44
2023-04-17T00:16:27.402Z,102782.03
2023-04-17T00:21:33.074Z,102793.56
2023-04-17T00:26:35.965Z,102792.44
2023-04-17T00:31:39.291Z,102720.31
2023-04-17T00:36:41.753Z,102791.59
2023-04-17T00:41:44.589Z,102815.75
2023-04-17T00:46:49.034Z,102807.69
2023-04-17T00:51:53.146Z,102808.53
2023-04-17T00:56:57.884Z,102785.75
2023-04-17T01:02:02.362Z,102773.53
2023-04-17T01:07:05.621Z,102790.63
2023-04-17T01:12:24.643Z,102804.19
2023-04-17T01:17:27.985Z,102803.09
2023-04-17T01:22:30.511Z,102785.00
2023-04-17T01:27:35.326Z,102770.00
2023-04-17T01:32:38.320Z,102789.56
2023-04-17T01:37:41.433Z,102789.56
2023-04-17T01:42:44.263Z,102801.34
2023-04-17T01:47:47.557Z,102769.06
2023-04-17T01:52:50.461Z,102805.66
2023-04-17T01:57:53.701Z,102793.16
2023-04-17T02:02:56.983Z,102808.94
2023-04-17T02:07:59.359Z,102810.19
2023-04-17T02:13:02.122Z,102809.00
2023-04-17T02:18:09.532Z,102834.66
2023-04-17T02:23:12.489Z,102813.59
2023-04-17T02:28:15.858Z,102836.25
2023-04-17T02:33:18.547Z,102843.19
2023-04-17T02:38:22.794Z,102844.28
2023-04-17T02:43:25.447Z,102855.69
2023-04-17T02:48:27.722Z,102836.28
2023-04-17T02:53:30.632Z,102832.28
2023-04-17T02:58:32.993Z,102844.78
2023-04-17T03:03:35.849Z,102860.09
2023-04-17T03:08:45.608Z,102859.56
2023-04-17T03:13:48.129Z,102853.84
2023-04-17T03:18:50.637Z,102847.63
2023-04-17T03:23:53.070Z,102848.84
2023-04-17T03:28:57.630Z,102853.91
2023-04-17T03:34:01.037Z,102813.16
2023-04-17T03:39:03.909Z,102839.13
2023-04-17T03:44:09.601Z,102872.88
2023-04-17T03:49:12.645Z,102877.19
2023-04-17T03:54:16.390Z,102858.03
2023-04-17T03:59:21.181Z,102854.03
2023-04-17T04:04:26.142Z,102871.81
2023-04-17T04:09:38.410Z,102870.38
2023-04-17T04:14:43.167Z,102860.72
2023-04-17T04:19:48.071Z,102856.84
2023-04-17T04:24:54.478Z,102869.38
2023-04-17T04:30:06.178Z,102838.28
2023-04-17T04:35:14.376Z,102845.63
2023-04-17T04:40:18.257Z,102862.78
2023-04-17T04:45:21.502Z,102868.78
2023-04-17T04:50:24.742Z,102866.03
2023-04-17T04:55:30.886Z,102851.78
2023-04-17T05:00:34.260Z,102856.88
2023-04-17T05:05:37.947Z,102866.09
2023-04-17T05:10:41.069Z,102858.91
2023-04-17T05:15:44.299Z,102872.53
2023-04-17T05:20:48.188Z,102866.97
2023-04-17T05:25:51.499Z,102831.63
2023-04-17T05:30:57.805Z,102847.50
2023-04-17T05:36:09.877Z,102847.84
2023-04-17T05:41:18.078Z,102853.44
2023-04-17T05:46:22.114Z,102869.78
2023-04-17T05:51:25.147Z,102851.50
2023-04-17T05:56:28.595Z,102866.94
2023-04-17T06:01:32.798Z,102870.78
2023-04-17T06:06:35.924Z,102867.66
2023-04-17T06:11:38.455Z,102872.34
2023-04-17T06:16:42.715Z,102870.19
2023-04-17T06:21:45.736Z,102894.25
2023-04-17T06:26:48.115Z,102884.50
2023-04-17T06:31:51.616Z,102880.31
2023-04-17T06:36:56.134Z,102888.03
2023-04-17T06:41:59.561Z,102882.31
2023-04-17T06:47:04.964Z,102903.44
2023-04-17T06:52:07.316Z,102894.66
2023-04-17T06:57:12.508Z,102898.28
2023-04-17T07:02:15.186Z,102897.78
2023-04-17T07:07:18.379Z,102843.22
2023-04-17T07:12:22.917Z,102888.53
2023-04-17T07:17:27.425Z,102888.19
2023-04-17T07:22:31.215Z,102898.59
2023-04-17T07:27:35.019Z,102895.06
2023-04-17T07:32:38.431Z,102880.25
2023-04-17T07:37:40.751Z,102897.03
2023-04-17T07:42:43.576Z,102839.38
2023-04-17T07:47:47.295Z,102864.97
2023-04-17T07:52:50.669Z,102874.44
2023-04-17T07:57:53.508Z,102884.59
2023-04-17T08:02:56.226Z,102877.53
2023-04-17T08:08:02.667Z,102845.88
2023-04-17T08:13:04.974Z,102857.47
2023-04-17T08:18:10.166Z,102887.28
2023-04-17T08:23:14.366Z,102872.72
2023-04-17T08:28:17.063Z,102874.22
2023-04-17T08:33:20.018Z,102886.28
2023-04-17T08:38:23.007Z,102856.22
2023-04-17T08:43:29.556Z,102875.81
2023-04-17T08:48:32.114Z,102839.78
2023-04-17T08:53:35.609Z,102878.34
2023-04-17T08:58:39.948Z,102880.81
2023-04-17T09:03:45.589Z,102863.28
2023-04-17T09:08:58.869Z,102870.22
2023-04-17T09:14:03.123Z,102855.53
2023-04-17T09:19:10.312Z,102867.44
2023-04-17T09:24:13.224Z,102849.78
2023-04-17T09:29:15.966Z,102848.97
2023-04-17T09:34:21.666Z,102859.44
2023-04-17T09:39:25.770Z,102873.22
2023-04-17T09:44:30.396Z,102846.22
2023-04-17T09:49:49.879Z,102872.81
2023-04-17T09:54:54.595Z,102853.22
2023-04-17T10:00:02.103Z,102855.03
2023-04-17T10:05:11.959Z,102840.16
2023-04-17T10:10:31.401Z,102858.72
2023-04-17T10:15:35.047Z,102826.19
2023-04-17T10:20:39.057Z,102807.88
2023-04-17T10:25:43.233Z,102827.19
2023-04-17T10:30:55.701Z,102821.63
2023-04-17T10:35:59.437Z,102808.63
2023-04-17T10:41:04.470Z,102781.44
2023-04-17T10:46:10.350Z,102817.88
2023-04-17T10:51:22.606Z,102818.75
2023-04-17T10:56:51.085Z,102808.25
2023-04-17T11:01:58.182Z,102819.16
2023-04-17T11:07:02.022Z,102794.84
2023-04-17T11:12:06.521Z,102791.53
2023-04-17T11:17:10.349Z,102809.06
2023-04-17T11:22:13.811Z,102736.88
2023-04-17T11:27:16.184Z,102772.25
2023-04-17T11:32:19.047Z,102744.66
2023-04-17T11:37:21.904Z,102780.91
2023-04-17T11:42:28.130Z,102731.88
2023-04-17T11:47:31.568Z,102775.06
2023-04-17T11:52:37.458Z,102727.91
2023-04-17T11:57:46.663Z,102767.41
2023-04-17T12:02:50.905Z,102742.88
2023-04-17T12:08:02.130Z,102770.84
2023-04-17T12:13:05.324Z,102742.47
2023-04-17T12:18:11.277Z,102723.75
2023-04-17T12:23:14.271Z,102736.50
2023-04-17T12:28:18.130Z,102715.25
2023-04-17T12:33:21.119Z,102750.09
2023-04-17T12:38:24.030Z,102683.47
2023-04-17T12:43:26.996Z,102737.97
2023-04-17T12:48:31.378Z,102736.53
2023-04-17T12:53:35.168Z,102721.91
2023-04-17T12:58:39.980Z,102716.53
2023-04-17T13:03:42.763Z,102742.34
2023-04-17T13:08:46.546Z,102720.88
2023-04-17T13:13:48.769Z,102721.06
2023-04-17T13:18:51.596Z,102663.31
2023-04-17T13:23:53.883Z,102713.28
2023-04-17T13:28:57.465Z,102716.19
2023-04-17T13:33:59.713Z,102713.50
2023-04-17T13:39:02.278Z,102694.00
2023-04-17T13:44:04.895Z,102673.28
2023-04-17T13:49:08.128Z,102715.84
2023-04-17T13:54:10.985Z,102704.47
2023-04-17T13:59:15.136Z,102690.50
2023-04-17T14:04:18.398Z,102661.13
2023-04-17T14:09:21.741Z,102682.91
2023-04-17T14:14:24.138Z,102688.09
2023-04-17T14:19:26.798Z,102697.81
2023-04-17T14:24:29.628Z,102680.97
2023-04-17T14:29:32.971Z,102666.13
2023-04-17T14:34:35.790Z,102687.13
2023-04-17T14:39:38.735Z,102672.16
2023-04-17T14:44:43.716Z,102668.03
2023-04-17T14:49:46.116Z,102673.81
2023-04-17T14:54:48.919Z,102668.69
2023-04-17T14:59:52.143Z,102684.75
2023-04-17T15:04:55.238Z,102671.78
2023-04-17T15:09:57.573Z,102686.00
2023-04-17T15:14:59.982Z,102704.56
2023-04-17T15:20:02.431Z,102658.88
2023-04-17T15:25:06.044Z,102679.03
2023-04-17T15:30:09.689Z,102703.34
2023-04-17T15:35:12.141Z,102685.63
2023-04-17T15:40:14.494Z,102702.06
2023-04-17T15:45:16.887Z,102696.25
2023-04-17T15:50:20.512Z,102714.34
2023-04-17T15:55:23.060Z,102682.13
2023-04-17T16:00:25.955Z,102717.09
2023-04-17T16:05:30.450Z,102726.25
2023-04-17T16:10:34.967Z,102717.13
2023-04-17T16:15:37.221Z,102729.38
2023-04-17T16:20:39.844Z,102724.97
2023-04-17T16:25:42.401Z,102731.63
2023-04-17T16:30:44.665Z,102748.19
2023-04-17T16:35:47.523Z,102729.16
2023-04-17T16:40:50.225Z,102752.19
2023-04-17T16:45:52.665Z,102745.34
2023-04-17T16:50:57.087Z,102747.50
2023-04-17T16:55:59.568Z,102753.22
2023-04-17T17:01:01.817Z,102732.09
2023-04-17T17:06:07.267Z,102765.34
2023-04-17T17:11:09.508Z,102768.00
2023-04-17T17:16:12.602Z,102772.53
2023-04-17T17:21:15.755Z,102766.47
2023-04-17T17:26:18.608Z,102769.34
2023-04-17T17:31:21.870Z,102770.63
2023-04-17T17:36:24.501Z,102781.69
2023-04-17T17:41:26.803Z,102762.16
2023-04-17T17:46:30.849Z,102785.75
2023-04-17T17:51:33.262Z,102758.78
2023-04-17T17:56:35.537Z,102768.44
2023-04-17T18:01:40.555Z,102773.63
2023-04-17T18:06:42.998Z,102762.06
2023-04-17T18:11:45.740Z,102748.56
2023-04-17T18:16:48.843Z,102782.44
2023-04-17T18:21:51.828Z,102768.84
2023-04-17T18:26:54.325Z,102741.81
2023-04-17T18:31:56.629Z,102755.94
2023-04-17T18:37:00.626Z,102773.38
2023-04-17T18:42:03.880Z,102753.72
2023-04-17T18:47:06.784Z,102739.72
2023-04-17T18:52:09.302Z,102760.63
2023-04-17T18:57:11.516Z,102758.53
2023-04-17T19:02:13.940Z,102759.66
2023-04-17T19:07:16.137Z,102758.13
2023-04-17T19:12:18.441Z,102757.22
2023-04-17T19:17:20.830Z,102754.66
2023-04-17T19:22:23.547Z,102751.50
2023-04-17T19:27:27.014Z,102761.16
2023-04-17T19:32:31.544Z,102760.84
2023-04-17T19:37:34.860Z,102759.69
2023-04-17T19:42:37.499Z,102759.25
2023-04-17T19:47:40.681Z,102756.75
2023-04-17T19:52:43.981Z,102730.09
2023-04-17T19:57:48.453Z,102745.34
2023-04-17T20:02:51.283Z,102721.16
2023-04-17T20:07:54.549Z,102752.50
2023-04-17T20:12:57.350Z,102745.03
2023-04-17T20:18:00.888Z,102713.66
2023-04-17T20:23:04.149Z,102743.72
2023-04-17T20:28:06.562Z,102742.50
2023-04-17T20:33:09.621Z,102754.94
2023-04-17T20:38:12.450Z,102741.84
2023-04-17T20:43:15.233Z,102741.97
2023-04-17T20:48:17.607Z,102757.38
2023-04-17T20:53:20.552Z,102729.16
2023-04-17T20:58:24.924Z,102737.28
2023-04-17T21:03:29.750Z,102736.25
2023-04-17T21:08:33.269Z,102753.13
2023-04-17T21:13:35.556Z,102725.56
2023-04-17T21:18:38.985Z,102723.91
2023-04-17T21:23:41.263Z,102694.91
2023-04-17T21:28:44.098Z,102725.88
2023-04-17T21:33:46.887Z,102727.66
2023-04-17T21:38:49.638Z,102722.84
2023-04-17T21:43:54.769Z,102740.50
2023-04-17T21:48:57.184Z,102723.03
2023-04-17T21:54:01.071Z,102726.31
2023-04-17T21:59:04.430Z,102710.88
2023-04-17T22:04:06.810Z,102717.44
2023-04-17T22:09:10.104Z,102725.78
2023-04-17T22:14:13.050Z,102723.94
2023-04-17T22:19:16.254Z,102708.06
2023-04-17T22:24:18.978Z,102730.94
2023-04-17T22:29:21.261Z,102722.84
2023-04-17T22:34:24.855Z,102731.63
2023-04-17T22:39:27.575Z,102726.34
2023-04-17T22:44:30.534Z,102709.28
2023-04-17T22:49:38.724Z,102723.69
2023-04-17T22:54:43.035Z,102734.91
2023-04-17T22:59:46.498Z,102725.28
2023-04-17T23:04:49.870Z,102700.53
2023-04-17T23:09:52.567Z,102728.84
2023-04-17T23:14:54.863Z,102725.13
2023-04-17T23:19:57.177Z,102729.66
2023-04-17T23:25:00.535Z,102726.44
2023-04-17T23:30:04.338Z,102719.63
2023-04-17T23:35:07.668Z,102690.53
2023-04-17T23:40:10.291Z,102725.59
2023-04-17T23:45:12.790Z,102694.16
2023-04-17T23:50:15.319Z,102725.69
2023-04-17T23:55:17.550Z,102732.16
